Portada
METAR-TAF:

METAR-TAF

Aeroports :

Ha'il, Aràbia Saudita

latitud: 27-26N, longitud: 041-41E, altitud: 1015 m

Observació

L'informe es va fer fa 38 minuts, a les 18:00 UTC
Vent 8 kt del Nord
Temperatura 27°C
Humitat 20%
Pressió 1015 hPa
Visibilitat 10 km o més
Núvols disperses a una alçada de 4000 ft

METAR: OEHL 221800Z 36008KT 9999 SCT040 27/02 Q1015

Hora: 21:38 (18:38 UTC)

Pronòstic

L'informe es va fer fa 7 hores i 38 minuts, a les 11:00 UTC
Pronòstic vàlid del 22 a les 12 UTC al 23 a les 18 UTC
Vent 14 kt del Sud-Oest
Visibilitat: 7000 m
Escasses núvols a una alçada de 4500 ft
Temporalment
l' 22 a les 14 UTC al 22 a les 22 UTC
Escasses núvols a una alçada de 3500 ft, Cumulonimbus.
Núvols disperses a una alçada de 4500 ft
Evolucionant progressivament
l' 22 a les 20 UTC al 22 a les 22 UTC
Vent 3 kt amb direcció variable

TAF: OEHL 221100Z 2212/2318 22014KT 7000 FEW045 TEMPO 2214/2222 FEW035CB SCT045 BECMG 2220/2222 VRB03KT

Observacions i pronòstics meteorològics de més de 4000 aeroports (METAR i TAF).

Les estacions disponibles són els punts grocs i vermells al mapa.

Posi el ratolí al punt desitjat per veure el nom de l'estació.

Feu clic per veure les observacions i els pronòstics meteorològics.

Per canviar el mapa: feu clic els botons verds amb una creu de color negre per apropar; al botó verd amb un guió per allunyar la imatge; o en les fletxes verdes per a mapes adjacents.


METAR-TAF: